Time;durP1;ratioP1;P1;durP2;ratioP2;P2;SDS_P1;SDS_P2;PMS_P1;PMS_P2;Temp;Humidity;BMP_temperature;BMP_pressure;BME280_temperature;BME280_humidity;BME280_pressure;Samples;Min_cycle;Max_cycle;Signal;HPM_P1;HPM_P2
2023/08/01 00:02:25;;;;;;;;;;;;;;;;;;2201066;59;1816;-24
2023/08/01 00:04:55;;;;;;;;;;;;;;;;;;2200481;59;2227;-24
2023/08/01 00:07:28;;;;;;;;;;;;;;;;;;2203125;59;2929;-24
2023/08/01 00:09:59;;;;;;;;;;;;;;;;;;2200396;67;2291;-24
2023/08/01 00:12:29;;;;;;;;;;;;;;;;;;2200638;59;1969;-24
2023/08/01 00:14:59;;;;;;;;;;;;;;;;;;2199776;67;2314;-24
2023/08/01 00:17:29;;;;;;;;;;;;;;;;;;2200457;67;2638;-24
2023/08/01 00:19:59;;;;;;;;;;;;;;;;;;2199956;66;2634;-24
2023/08/01 00:22:30;;;;;;;;;;;;;;;;;;2200471;67;2738;-24
2023/08/01 00:25:00;;;;;;;;;;;;;;;;;;2200120;67;2509;-24
2023/08/01 00:27:32;;;;;;;;;;;;;;;;;;2200416;59;1699;-24
2023/08/01 00:30:02;;;;;;;;;;;;;;;;;;2198973;66;1857;-24
2023/08/01 00:32:32;;;;;;;;;;;;;;;;;;2200495;59;2494;-24
2023/08/01 00:35:03;;;;;;;;;;;;;;;;;;2198976;59;2147;-24
2023/08/01 00:37:33;;;;;;;;;;;;;;;;;;2200204;59;1466;-24
2023/08/01 00:40:04;;;;;;;;;;;;;;;;;;2199674;67;1742;-23
2023/08/01 00:42:38;;;;;;;;;;;;;;;;;;2200684;67;1764;-24
2023/08/01 00:45:11;;;;;;;;;;;;;;;;;;2197866;59;3454;-24
2023/08/01 00:47:41;;;;;;;;;;;;;;;;;;2200154;67;2997;-24
2023/08/01 00:50:11;;;;;;;;;;;;;;;;;;2200022;59;1606;-24
2023/08/01 00:52:42;;;;;;;;;;;;;;;;;;2200370;59;2504;-23
2023/08/01 00:55:12;;;;;;;;;;;;;;;;;;2200047;58;2950;-24
2023/08/01 00:57:43;;;;;;;;;;;;;;;;;;2201111;66;1715;-23
2023/08/01 01:00:13;;;;;;;;;;;;;;;;;;2198637;59;2831;-23
2023/08/01 01:02:44;;;;;;;;;;;;;;;;;;2199905;67;2122;-24
2023/08/01 01:05:17;;;;;;;;;;;;;;;;;;2199696;59;1940;-23
2023/08/01 01:07:48;;;;;;;;;;;;;;;;;;2200295;67;1917;-23
2023/08/01 01:10:18;;;;;;;;;;;;;;;;;;2200044;67;2062;-24
2023/08/01 01:12:50;;;;;;;;;;;;;;;;;;2200717;59;1402;-24
2023/08/01 01:15:20;;;;;;;;;;;;;;;;;;2200063;67;1982;-23
2023/08/01 01:17:50;;;;;;;;;;;;;;;;;;2200652;67;1179;-23
2023/08/01 01:20:22;;;;;;;;;;;;;;;;;;2200157;67;1230;-23
2023/08/01 01:22:54;;;;;;;;;;;;;;;;;;2200163;67;1570;-23
2023/08/01 01:25:25;;;;;;;;;;;;;;;;;;2200345;67;1495;-23
2023/08/01 01:27:56;;;;;;;;;;;;;;;;;;2200447;59;1419;-24
2023/08/01 01:30:27;;;;;;;;;;;;;;;;;;2200611;67;1944;-24
2023/08/01 01:32:57;;;;;;;;;;;;;;;;;;2200615;59;1919;-23
2023/08/01 01:35:28;;;;;;;;;;;;;;;;;;2199995;67;1273;-23
2023/08/01 01:37:58;;;;;;;;;;;;;;;;;;2199834;67;2026;-24
2023/08/01 01:40:29;;;;;;;;;;;;;;;;;;2200499;67;1475;-23
2023/08/01 01:43:06;;;;;;;;;;;;;;;;;;2200278;67;1865;-24
2023/08/01 01:45:36;;;;;;;;;;;;;;;;;;2199443;59;2816;-23
2023/08/01 01:48:06;;;;;;;;;;;;;;;;;;2200360;67;2268;-23
2023/08/01 01:50:36;;;;;;;;;;;;;;;;;;2200522;59;2520;-23
2023/08/01 01:53:09;;;;;;;;;;;;;;;;;;2199313;59;1806;-23
2023/08/01 01:55:40;;;;;;;;;;;;;;;;;;2200183;58;1561;-23
2023/08/01 01:58:10;;;;;;;;;;;;;;;;;;2199487;67;2041;-23
2023/08/01 02:00:40;;;;;;;;;;;;;;;;;;2199822;59;1793;-23
2023/08/01 02:03:12;;;;;;;;;;;;;;;;;;2199690;67;2254;-23
2023/08/01 02:05:42;;;;;;;;;;;;;;;;;;2200317;59;1853;-24
2023/08/01 02:08:12;;;;;;;;;;;;;;;;;;2199571;67;1829;-23
2023/08/01 02:10:43;;;;;;;;;;;;;;;;;;2199976;59;2537;-22
2023/08/01 02:13:13;;;;;;;;;;;;;;;;;;2198915;59;2061;-22
2023/08/01 02:15:46;;;;;;;;;;;;;;;;;;2199665;67;1733;-22
2023/08/01 02:18:17;;;;;;;;;;;;;;;;;;2200031;67;1628;-22
2023/08/01 02:20:47;;;;;;;;;;;;;;;;;;2200624;67;1837;-22
2023/08/01 02:23:17;;;;;;;;;;;;;;;;;;2199656;67;2471;-23
2023/08/01 02:25:47;;;;;;;;;;;;;;;;;;2200226;67;1639;-23
2023/08/01 02:28:18;;;;;;;;;;;;;;;;;;2199073;66;2355;-22
2023/08/01 02:30:50;;;;;;;;;;;;;;;;;;2200552;59;2039;-23
2023/08/01 02:33:21;;;;;;;;;;;;;;;;;;2199356;59;1891;-22
2023/08/01 02:35:51;;;;;;;;;;;;;;;;;;2196790;67;1850;-22
2023/08/01 02:38:22;;;;;;;;;;;;;;;;;;2200016;59;2361;-23
2023/08/01 02:40:52;;;;;;;;;;;;;;;;;;2200447;67;1790;-22
2023/08/01 02:43:25;;;;;;;;;;;;;;;;;;2199139;67;1829;-22
2023/08/01 02:45:56;;;;;;;;;;;;;;;;;;2198707;59;2281;-22
2023/08/01 02:48:26;;;;;;;;;;;;;;;;;;2199359;67;2433;-22
2023/08/01 02:50:57;;;;;;;;;;;;;;;;;;2200025;59;2020;-22
2023/08/01 02:53:27;;;;;;;;;;;;;;;;;;2199660;59;2000;-23
2023/08/01 02:55:57;;;;;;;;;;;;;;;;;;2200206;59;1872;-22
2023/08/01 02:58:27;;;;;;;;;;;;;;;;;;2199940;67;2549;-22
2023/08/01 03:00:58;;;;;;;;;;;;;;;;;;2200097;59;1881;-22
2023/08/01 03:03:28;;;;;;;;;;;;;;;;;;2200559;59;2070;-22
2023/08/01 03:05:58;;;;;;;;;;;;;;;;;;2200051;67;1980;-22
2023/08/01 03:08:32;;;;;;;;;;;;;;;;;;2200735;66;2046;-22
2023/08/01 03:11:02;;;;;;;;;;;;;;;;;;2200453;66;1984;-23
2023/08/01 03:13:32;;;;;;;;;;;;;;;;;;2200238;59;2139;-22
2023/08/01 03:16:04;;;;;;;;;;;;;;;;;;2199815;67;2139;-22
2023/08/01 03:18:34;;;;;;;;;;;;;;;;;;2200084;59;2698;-22
2023/08/01 03:21:04;;;;;;;;;;;;;;;;;;2200048;67;2350;-23
2023/08/01 03:23:35;;;;;;;;;;;;;;;;;;2200566;67;2047;-22
2023/08/01 03:26:05;;;;;;;;;;;;;;;;;;2200692;59;1796;-23
2023/08/01 03:28:35;;;;;;;;;;;;;;;;;;2199843;67;2021;-23
2023/08/01 03:31:05;;;;;;;;;;;;;;;;;;2200557;60;1945;-22
2023/08/01 03:33:36;;;;;;;;;;;;;;;;;;2199985;59;2495;-22
2023/08/01 03:36:06;;;;;;;;;;;;;;;;;;2200091;67;2595;-23
2023/08/01 03:38:36;;;;;;;;;;;;;;;;;;2201458;59;1813;-23
2023/08/01 03:41:10;;;;;;;;;;;;;;;;;;2199051;66;2655;-22
2023/08/01 03:43:41;;;;;;;;;;;;;;;;;;2200584;67;1794;-22
2023/08/01 03:46:11;;;;;;;;;;;;;;;;;;2199470;59;2501;-22
2023/08/01 03:48:43;;;;;;;;;;;;;;;;;;2199716;59;2443;-22
2023/08/01 03:51:15;;;;;;;;;;;;;;;;;;2200207;59;2378;-22
2023/08/01 03:53:45;;;;;;;;;;;;;;;;;;2201183;59;3299;-22
2023/08/01 03:56:15;;;;;;;;;;;;;;;;;;2200837;58;1846;-22
2023/08/01 03:58:49;;;;;;;;;;;;;;;;;;2200686;67;1226;-22
2023/08/01 04:01:19;;;;;;;;;;;;;;;;;;2200048;59;2330;-22
2023/08/01 04:03:49;;;;;;;;;;;;;;;;;;2200925;59;1771;-22
2023/08/01 04:06:20;;;;;;;;;;;;;;;;;;2200967;67;2822;-22
2023/08/01 04:08:51;;;;;;;;;;;;;;;;;;2201976;67;1849;-25
2023/08/01 04:11:22;;;;;;;;;;;;;;;;;;2200213;59;2657;-25
2023/08/01 04:13:52;;;;;;;;;;;;;;;;;;2200844;66;2070;-25
2023/08/01 04:16:22;;;;;;;;;;;;;;;;;;2200652;67;2389;-25
2023/08/01 04:18:52;;;;;;;;;;;;;;;;;;2201078;67;1940;-25
2023/08/01 04:21:23;;;;;;;;;;;;;;;;;;2200441;67;1661;-25
2023/08/01 04:23:53;;;;;;;;;;;;;;;;;;2200347;67;2644;-25
2023/08/01 04:26:23;;;;;;;;;;;;;;;;;;2201009;59;1828;-24
2023/08/01 04:28:53;;;;;;;;;;;;;;;;;;2201350;67;2608;-24
2023/08/01 04:31:24;;;;;;;;;;;;;;;;;;2200366;67;1981;-24
2023/08/01 04:33:54;;;;;;;;;;;;;;;;;;2199915;59;3048;-24
2023/08/01 04:36:24;;;;;;;;;;;;;;;;;;2199898;67;1831;-24
2023/08/01 04:38:54;;;;;;;;;;;;;;;;;;2200783;59;2254;-24
2023/08/01 04:41:24;;;;;;;;;;;;;;;;;;2201079;67;1971;-24
2023/08/01 04:43:55;;;;;;;;;;;;;;;;;;2200781;67;2206;-24
2023/08/01 04:46:25;;;;;;;;;;;;;;;;;;2200173;59;1914;-24
2023/08/01 04:48:55;;;;;;;;;;;;;;;;;;2198683;59;2665;-24
2023/08/01 04:51:25;;;;;;;;;;;;;;;;;;2199538;59;2468;-24
2023/08/01 04:53:55;;;;;;;;;;;;;;;;;;2200170;59;2387;-24
2023/08/01 04:56:26;;;;;;;;;;;;;;;;;;2196848;58;2198;-24
2023/08/01 04:58:56;;;;;;;;;;;;;;;;;;2200419;66;1928;-24
2023/08/01 05:01:26;;;;;;;;;;;;;;;;;;2199560;59;2240;-24
2023/08/01 05:03:57;;;;;;;;;;;;;;;;;;2200106;67;1846;-24
2023/08/01 05:06:30;;;;;;;;;;;;;;;;;;2199286;67;1977;-24
2023/08/01 05:09:00;;;;;;;;;;;;;;;;;;2199935;67;1633;-24
2023/08/01 05:11:30;;;;;;;;;;;;;;;;;;2200253;59;2006;-22
2023/08/01 05:14:01;;;;;;;;;;;;;;;;;;2199549;67;1940;-22
2023/08/01 05:16:31;;;;;;;;;;;;;;;;;;2199912;67;2878;-22
2023/08/01 05:19:01;;;;;;;;;;;;;;;;;;2199549;66;2675;-22
2023/08/01 05:21:31;;;;;;;;;;;;;;;;;;2200427;67;1680;-22
2023/08/01 05:24:02;;;;;;;;;;;;;;;;;;2199374;59;1572;-22
2023/08/01 05:26:32;;;;;;;;;;;;;;;;;;2200375;67;1942;-22
2023/08/01 05:29:02;;;;;;;;;;;;;;;;;;2200604;67;1364;-22
2023/08/01 05:31:32;;;;;;;;;;;;;;;;;;2200235;59;1997;-22
2023/08/01 05:34:03;;;;;;;;;;;;;;;;;;2200586;59;1557;-22
2023/08/01 05:36:33;;;;;;;;;;;;;;;;;;2200535;59;1423;-22
2023/08/01 05:39:03;;;;;;;;;;;;;;;;;;2200266;67;1722;-24
2023/08/01 05:41:34;;;;;;;;;;;;;;;;;;2199582;59;2008;-24
2023/08/01 05:44:07;;;;;;;;;;;;;;;;;;2199697;67;1446;-24
2023/08/01 05:46:37;;;;;;;;;;;;;;;;;;2200248;59;1542;-24
2023/08/01 05:49:08;;;;;;;;;;;;;;;;;;2198963;60;3157;-24
2023/08/01 05:51:38;;;;;;;;;;;;;;;;;;2199805;59;2547;-24
2023/08/01 05:54:09;;;;;;;;;;;;;;;;;;2199072;59;1973;-24
2023/08/01 05:56:39;;;;;;;;;;;;;;;;;;2201209;58;2246;-24
2023/08/01 05:59:09;;;;;;;;;;;;;;;;;;2200309;67;1693;-24
2023/08/01 06:01:39;;;;;;;;;;;;;;;;;;2200946;59;1808;-24
2023/08/01 06:04:10;;;;;;;;;;;;;;;;;;2200479;59;1847;-24
2023/08/01 06:06:40;;;;;;;;;;;;;;;;;;2199895;67;3072;-24
2023/08/01 06:09:10;;;;;;;;;;;;;;;;;;2200123;67;1962;-24
2023/08/01 06:11:41;;;;;;;;;;;;;;;;;;2199833;59;1979;-24
2023/08/01 06:14:11;;;;;;;;;;;;;;;;;;2199983;67;1835;-24
2023/08/01 06:16:41;;;;;;;;;;;;;;;;;;2199672;67;1744;-24
2023/08/01 06:19:11;;;;;;;;;;;;;;;;;;2200123;67;2503;-24
2023/08/01 06:21:42;;;;;;;;;;;;;;;;;;2199594;66;2408;-24
2023/08/01 06:24:12;;;;;;;;;;;;;;;;;;2201932;66;2372;-24
2023/08/01 06:26:42;;;;;;;;;;;;;;;;;;2202108;59;1852;-24
2023/08/01 06:29:13;;;;;;;;;;;;;;;;;;2200691;67;1781;-24
2023/08/01 06:31:43;;;;;;;;;;;;;;;;;;2199049;59;1977;-25
2023/08/01 06:34:14;;;;;;;;;;;;;;;;;;2199625;59;2425;-25
2023/08/01 06:36:44;;;;;;;;;;;;;;;;;;2200203;59;2084;-25
2023/08/01 06:39:14;;;;;;;;;;;;;;;;;;2199661;67;2634;-24
2023/08/01 06:41:45;;;;;;;;;;;;;;;;;;2199899;66;1901;-25
2023/08/01 06:44:15;;;;;;;;;;;;;;;;;;2200309;67;3324;-25
2023/08/01 06:46:45;;;;;;;;;;;;;;;;;;2200282;59;1671;-25
2023/08/01 06:49:16;;;;;;;;;;;;;;;;;;2200032;59;2201;-25
2023/08/01 06:51:46;;;;;;;;;;;;;;;;;;2199571;59;2187;-25
2023/08/01 06:54:16;;;;;;;;;;;;;;;;;;2200177;59;2254;-25
2023/08/01 06:56:49;;;;;;;;;;;;;;;;;;2200027;59;1778;-24
2023/08/01 06:59:20;;;;;;;;;;;;;;;;;;2200836;67;1527;-24
2023/08/01 07:01:50;;;;;;;;;;;;;;;;;;2201894;59;2434;-25
2023/08/01 07:04:20;;;;;;;;;;;;;;;;;;2200237;59;2796;-25
2023/08/01 07:06:51;;;;;;;;;;;;;;;;;;2200713;67;2864;-24
2023/08/01 07:09:21;;;;;;;;;;;;;;;;;;2200166;67;2317;-24
2023/08/01 07:11:51;;;;;;;;;;;;;;;;;;2199574;67;1951;-25
2023/08/01 07:14:21;;;;;;;;;;;;;;;;;;2199770;67;1733;-25
2023/08/01 07:16:55;;;;;;;;;;;;;;;;;;2199207;67;1762;-24
2023/08/01 07:19:25;;;;;;;;;;;;;;;;;;2200400;67;1779;-24
2023/08/01 07:21:55;;;;;;;;;;;;;;;;;;2200213;67;1750;-25
2023/08/01 07:24:25;;;;;;;;;;;;;;;;;;2200341;67;3163;-25
2023/08/01 07:26:56;;;;;;;;;;;;;;;;;;2200309;59;2549;-24
2023/08/01 07:29:26;;;;;;;;;;;;;;;;;;2200587;59;1561;-25
2023/08/01 07:31:56;;;;;;;;;;;;;;;;;;2202196;59;2079;-25
2023/08/01 07:34:27;;;;;;;;;;;;;;;;;;2199650;66;2877;-25
2023/08/01 07:36:57;;;;;;;;;;;;;;;;;;2200228;59;2674;-25
2023/08/01 07:39:27;;;;;;;;;;;;;;;;;;2200215;67;2474;-25
2023/08/01 07:41:58;;;;;;;;;;;;;;;;;;2199629;67;1729;-25
2023/08/01 07:44:29;;;;;;;;;;;;;;;;;;2200345;59;1948;-25
2023/08/01 07:46:59;;;;;;;;;;;;;;;;;;2199870;67;1902;-25
2023/08/01 07:49:29;;;;;;;;;;;;;;;;;;2200511;59;2855;-25
2023/08/01 07:51:59;;;;;;;;;;;;;;;;;;2199232;59;2627;-25
2023/08/01 07:54:30;;;;;;;;;;;;;;;;;;2199670;59;2238;-25
2023/08/01 07:57:00;;;;;;;;;;;;;;;;;;2200561;66;1738;-25
2023/08/01 07:59:30;;;;;;;;;;;;;;;;;;2199650;66;1682;-25
2023/08/01 08:02:01;;;;;;;;;;;;;;;;;;2200354;59;2392;-24
2023/08/01 08:04:32;;;;;;;;;;;;;;;;;;2200443;67;2451;-25
2023/08/01 08:07:02;;;;;;;;;;;;;;;;;;2199617;67;1966;-25
2023/08/01 08:09:32;;;;;;;;;;;;;;;;;;2199694;67;1800;-24
2023/08/01 08:12:03;;;;;;;;;;;;;;;;;;2196791;59;2269;-25
2023/08/01 08:14:33;;;;;;;;;;;;;;;;;;2199687;66;2419;-25
2023/08/01 08:17:04;;;;;;;;;;;;;;;;;;2200515;67;1996;-25
2023/08/01 08:19:34;;;;;;;;;;;;;;;;;;2200370;64;1733;-24
2023/08/01 08:22:04;;;;;;;;;;;;;;;;;;2200700;67;1943;-25
2023/08/01 08:24:35;;;;;;;;;;;;;;;;;;2200017;67;3006;-25
2023/08/01 08:27:05;;;;;;;;;;;;;;;;;;2196796;67;2117;-25
2023/08/01 08:29:35;;;;;;;;;;;;;;;;;;2199562;67;2421;-25
2023/08/01 08:32:06;;;;;;;;;;;;;;;;;;2200186;59;2687;-25
2023/08/01 08:34:36;;;;;;;;;;;;;;;;;;2199949;66;2743;-25
2023/08/01 08:37:06;;;;;;;;;;;;;;;;;;2201099;59;1932;-25
2023/08/01 08:39:37;;;;;;;;;;;;;;;;;;2200684;67;1890;-25
2023/08/01 08:42:07;;;;;;;;;;;;;;;;;;2200608;67;2455;-25
2023/08/01 08:44:42;;;;;;;;;;;;;;;;;;2200574;59;2366;-25
2023/08/01 08:47:16;;;;;;;;;;;;;;;;;;2200483;59;2158;-25
2023/08/01 08:49:47;;;;;;;;;;;;;;;;;;2198937;66;2241;-25
2023/08/01 08:52:18;;;;;;;;;;;;;;;;;;2199039;59;3390;-25
2023/08/01 08:54:49;;;;;;;;;;;;;;;;;;2200148;59;2602;-25
2023/08/01 08:57:20;;;;;;;;;;;;;;;;;;2200534;58;1750;-25
2023/08/01 08:59:51;;;;;;;;;;;;;;;;;;2200794;59;1961;-24
2023/08/01 09:02:22;;;;;;;;;;;;;;;;;;2200602;66;1867;-25
2023/08/01 09:04:52;;;;;;;;;;;;;;;;;;2200365;59;2148;-25
2023/08/01 09:07:24;;;;;;;;;;;;;;;;;;2196934;59;1752;-24
2023/08/01 09:09:54;;;;;;;;;;;;;;;;;;2200930;67;2326;-25
2023/08/01 09:12:24;;;;;;;;;;;;;;;;;;2200588;59;2480;-25
2023/08/01 09:14:56;;;;;;;;;;;;;;;;;;2200137;67;2111;-26
2023/08/01 09:17:26;;;;;;;;;;;;;;;;;;2200073;67;1943;-26
2023/08/01 09:20:06;;;;;;;;;;;;;;;;;;2198751;59;2091;-25
2023/08/01 09:22:46;;;;;;;;;;;;;;;;;;2199391;67;1996;-25
2023/08/01 09:25:17;;;;;;;;;;;;;;;;;;2200393;67;2048;-25
2023/08/01 09:27:47;;;;;;;;;;;;;;;;;;2200069;59;2311;-26
2023/08/01 09:30:17;;;;;;;;;;;;;;;;;;2199367;59;2105;-26
2023/08/01 09:32:54;;;;;;;;;;;;;;;;;;2200271;59;2192;-25
2023/08/01 09:35:25;;;;;;;;;;;;;;;;;;2199763;66;2082;-25
2023/08/01 09:37:59;;;;;;;;;;;;;;;;;;2207087;53;3573;-21
2023/08/01 09:40:39;;;;;;;;;;;;;;;;;;2215148;66;1764;-21
2023/08/01 09:43:10;;;;;;;;;;;;;;;;;;2214393;59;1686;-21
2023/08/01 09:45:51;;;;;;;;;;;;;;;;;;2216462;59;2637;-21
2023/08/01 09:48:25;;;;;;;;;;;;;;;;;;2218373;59;2204;-21
2023/08/01 09:51:12;;;;;;;;;;;;;;;;;;2217933;58;1932;-21
2023/08/01 09:54:01;;;;;;;;;;;;;;;;;;2218812;58;2737;-22
2023/08/01 09:56:31;;;;;;;;;;;;;;;;;;2221045;58;1939;-22
2023/08/01 09:59:01;;;;;;;;;;;;;;;;;;2218822;66;2312;-22
2023/08/01 10:01:33;;;;;;;;;;;;;;;;;;2220620;58;1923;-22
2023/08/01 10:04:04;;;;;;;;;;;;;;;;;;2219117;58;1635;-22
2023/08/01 10:06:37;;;;;;;;;;;;;;;;;;2219351;66;1717;-22
2023/08/01 10:09:10;;;;;;;;;;;;;;;;;;2217216;66;1536;-22
2023/08/01 10:11:40;;;;;;;;;;;;;;;;;;2220206;58;1996;-22
2023/08/01 10:14:11;;;;;;;;;;;;;;;;;;2220165;66;1947;-22
2023/08/01 10:16:42;;;;;;;;;;;;;;;;;;2220382;66;1927;-22
2023/08/01 10:19:12;;;;;;;;;;;;;;;;;;2219885;66;1666;-22
2023/08/01 10:21:44;;;;;;;;;;;;;;;;;;2220037;66;1244;-22
2023/08/01 10:24:14;;;;;;;;;;;;;;;;;;2219517;58;1191;-22
2023/08/01 10:26:48;;;;;;;;;;;;;;;;;;2219166;58;1418;-21
2023/08/01 10:29:19;;;;;;;;;;;;;;;;;;2219525;58;1738;-21
2023/08/01 10:31:53;;;;;;;;;;;;;;;;;;2219805;58;1933;-22
2023/08/01 10:34:23;;;;;;;;;;;;;;;;;;2219234;66;1771;-21
2023/08/01 10:36:55;;;;;;;;;;;;;;;;;;2217677;59;1330;-21
2023/08/01 10:39:26;;;;;;;;;;;;;;;;;;2217982;58;1905;-21
2023/08/01 10:42:00;;;;;;;;;;;;;;;;;;2218763;66;1610;-21
2023/08/01 10:44:33;;;;;;;;;;;;;;;;;;2218473;58;1673;-21
2023/08/01 10:47:04;;;;;;;;;;;;;;;;;;2217782;66;1688;-21
2023/08/01 10:49:44;;;;;;;;;;;;;;;;;;2216033;66;1989;-21
2023/08/01 10:52:19;;;;;;;;;;;;;;;;;;2218285;58;1945;-21
2023/08/01 10:54:59;;;;;;;;;;;;;;;;;;2217436;58;2683;-33
2023/08/01 10:57:30;;;;;;;;;;;;;;;;;;2218246;59;2304;-21
2023/08/01 11:00:09;;;;;;;;;;;;;;;;;;2219540;58;2332;-21
2023/08/01 11:02:39;;;;;;;;;;;;;;;;;;2219639;59;1979;-21
2023/08/01 11:05:11;;;;;;;;;;;;;;;;;;2218841;58;1947;-19
2023/08/01 11:07:41;;;;;;;;;;;;;;;;;;2218732;58;1691;-20
2023/08/01 11:10:13;;;;;;;;;;;;;;;;;;2217838;66;2465;-19
2023/08/01 11:12:43;;;;;;;;;;;;;;;;;;2217660;58;1948;-19
2023/08/01 11:15:14;;;;;;;;;;;;;;;;;;2217927;66;2352;-20
2023/08/01 11:17:53;;;;;;;;;;;;;;;;;;2218798;58;2101;-21
2023/08/01 11:20:24;;;;;;;;;;;;;;;;;;2218760;66;1938;-21
2023/08/01 11:22:56;;;;;;;;;;;;;;;;;;2219121;66;1991;-21
2023/08/01 11:25:37;;;;;;;;;;;;;;;;;;2218547;59;1794;-21
2023/08/01 11:28:15;;;;;;;;;;;;;;;;;;2218113;58;3333;-21
2023/08/01 11:30:46;;;;;;;;;;;;;;;;;;2218160;59;1972;-21
2023/08/01 11:33:20;;;;;;;;;;;;;;;;;;2217724;58;1749;-21
2023/08/01 11:35:53;;;;;;;;;;;;;;;;;;2216965;66;1737;-21
2023/08/01 11:38:25;;;;;;;;;;;;;;;;;;2212782;59;1984;-21
2023/08/01 11:40:59;;;;;;;;;;;;;;;;;;2217589;59;2237;-21
2023/08/01 11:43:40;;;;;;;;;;;;;;;;;;2216310;66;1828;-21
2023/08/01 11:46:10;;;;;;;;;;;;;;;;;;2216147;59;1491;-21
2023/08/01 11:48:45;;;;;;;;;;;;;;;;;;2217825;66;2408;-21
2023/08/01 11:51:16;;;;;;;;;;;;;;;;;;2217654;58;1952;-21
2023/08/01 11:53:57;;;;;;;;;;;;;;;;;;2217087;58;3037;-21
2023/08/01 11:56:27;;;;;;;;;;;;;;;;;;2216822;66;2300;-21
2023/08/01 11:58:58;;;;;;;;;;;;;;;;;;2217038;66;1817;-21
2023/08/01 12:01:29;;;;;;;;;;;;;;;;;;2214287;59;2664;-19
2023/08/01 12:03:59;;;;;;;;;;;;;;;;;;2217494;58;2359;-19
2023/08/01 12:06:31;;;;;;;;;;;;;;;;;;2217199;66;2711;-19
2023/08/01 12:09:08;;;;;;;;;;;;;;;;;;2217163;66;2786;-19
2023/08/01 12:11:39;;;;;;;;;;;;;;;;;;2217155;58;1941;-19
2023/08/01 12:14:11;;;;;;;;;;;;;;;;;;2216373;66;1824;-19
2023/08/01 12:16:44;;;;;;;;;;;;;;;;;;2216643;66;1758;-19
2023/08/01 12:19:19;;;;;;;;;;;;;;;;;;2217120;66;2886;-19
2023/08/01 12:21:50;;;;;;;;;;;;;;;;;;2217586;59;2325;-21
2023/08/01 12:24:20;;;;;;;;;;;;;;;;;;2216048;66;2079;-21
2023/08/01 12:26:50;;;;;;;;;;;;;;;;;;2217008;66;1935;-21
2023/08/01 12:29:21;;;;;;;;;;;;;;;;;;2216456;58;2948;-21
2023/08/01 12:31:51;;;;;;;;;;;;;;;;;;2217633;59;2153;-21
2023/08/01 12:34:22;;;;;;;;;;;;;;;;;;2216804;58;1870;-21
2023/08/01 12:36:52;;;;;;;;;;;;;;;;;;2216262;66;1789;-21
2023/08/01 12:39:24;;;;;;;;;;;;;;;;;;2213252;59;2418;-21
2023/08/01 12:41:54;;;;;;;;;;;;;;;;;;2215711;59;1898;-21
2023/08/01 12:44:24;;;;;;;;;;;;;;;;;;2216240;58;1348;-21
2023/08/01 12:46:55;;;;;;;;;;;;;;;;;;2216334;66;1675;-21
2023/08/01 12:49:25;;;;;;;;;;;;;;;;;;2216146;58;1353;-21
2023/08/01 12:51:57;;;;;;;;;;;;;;;;;;2216451;58;1939;-21
2023/08/01 12:54:27;;;;;;;;;;;;;;;;;;2216883;58;1519;-21
2023/08/01 12:56:57;;;;;;;;;;;;;;;;;;2215114;58;2568;-21
2023/08/01 12:59:31;;;;;;;;;;;;;;;;;;2216673;66;1273;-21
2023/08/01 13:02:01;;;;;;;;;;;;;;;;;;2216825;58;1823;-21
2023/08/01 13:04:31;;;;;;;;;;;;;;;;;;2217041;58;1804;-21
2023/08/01 13:07:02;;;;;;;;;;;;;;;;;;2215144;59;2462;-21
2023/08/01 13:09:32;;;;;;;;;;;;;;;;;;2217065;66;1936;-21
2023/08/01 13:12:03;;;;;;;;;;;;;;;;;;2215999;59;1919;-21
2023/08/01 13:14:33;;;;;;;;;;;;;;;;;;2215673;66;2256;-21
2023/08/01 13:17:03;;;;;;;;;;;;;;;;;;2215838;66;2503;-21
2023/08/01 13:19:33;;;;;;;;;;;;;;;;;;2216991;58;2952;-21
2023/08/01 13:22:04;;;;;;;;;;;;;;;;;;2216397;66;1778;-21
2023/08/01 13:24:34;;;;;;;;;;;;;;;;;;2216040;66;1762;-21
2023/08/01 13:27:05;;;;;;;;;;;;;;;;;;2216512;58;1611;-21
2023/08/01 13:29:35;;;;;;;;;;;;;;;;;;2217195;66;1908;-21
2023/08/01 13:32:06;;;;;;;;;;;;;;;;;;2215798;58;2012;-21
2023/08/01 13:34:36;;;;;;;;;;;;;;;;;;2216408;66;1677;-21
2023/08/01 13:37:08;;;;;;;;;;;;;;;;;;2215721;66;2208;-21
2023/08/01 13:39:39;;;;;;;;;;;;;;;;;;2216216;58;1437;-21
2023/08/01 13:42:09;;;;;;;;;;;;;;;;;;2215874;66;2527;-21
2023/08/01 13:44:40;;;;;;;;;;;;;;;;;;2217040;58;1556;-21
2023/08/01 13:47:10;;;;;;;;;;;;;;;;;;2216024;66;2054;-20
2023/08/01 13:49:40;;;;;;;;;;;;;;;;;;2217542;66;1648;-21
2023/08/01 13:52:11;;;;;;;;;;;;;;;;;;2216979;58;2771;-21
2023/08/01 13:54:41;;;;;;;;;;;;;;;;;;2216117;58;1791;-21
2023/08/01 13:57:11;;;;;;;;;;;;;;;;;;2215494;58;2517;-21
2023/08/01 13:59:41;;;;;;;;;;;;;;;;;;2216248;58;2134;-21
2023/08/01 14:02:12;;;;;;;;;;;;;;;;;;2215922;66;1773;-21
2023/08/01 14:04:42;;;;;;;;;;;;;;;;;;2216129;58;1344;-21
2023/08/01 14:07:14;;;;;;;;;;;;;;;;;;2215796;59;1248;-21
2023/08/01 14:09:45;;;;;;;;;;;;;;;;;;2216798;66;1629;-21
2023/08/01 14:12:18;;;;;;;;;;;;;;;;;;2216898;58;1944;-21
2023/08/01 14:14:50;;;;;;;;;;;;;;;;;;2216735;66;1271;-21
2023/08/01 14:17:20;;;;;;;;;;;;;;;;;;2214365;59;1676;-19
2023/08/01 14:19:51;;;;;;;;;;;;;;;;;;2215852;66;1944;-19
2023/08/01 14:22:21;;;;;;;;;;;;;;;;;;2216053;59;1634;-19
2023/08/01 14:24:51;;;;;;;;;;;;;;;;;;2218964;66;1565;-19
2023/08/01 14:27:21;;;;;;;;;;;;;;;;;;2218567;59;1879;-18
2023/08/01 14:29:52;;;;;;;;;;;;;;;;;;2218307;59;2052;-19
2023/08/01 14:32:22;;;;;;;;;;;;;;;;;;2218912;58;1994;-19
2023/08/01 14:34:53;;;;;;;;;;;;;;;;;;2219366;66;1897;-19
2023/08/01 14:37:25;;;;;;;;;;;;;;;;;;2217872;66;1559;-19
2023/08/01 14:39:56;;;;;;;;;;;;;;;;;;2216676;58;1604;-19
2023/08/01 14:42:26;;;;;;;;;;;;;;;;;;2218618;66;2016;-19
2023/08/01 14:44:57;;;;;;;;;;;;;;;;;;2218753;59;2210;-21
2023/08/01 14:47:27;;;;;;;;;;;;;;;;;;2218222;59;1483;-21
2023/08/01 14:49:57;;;;;;;;;;;;;;;;;;2218309;58;1786;-21
2023/08/01 14:52:27;;;;;;;;;;;;;;;;;;2217348;58;1945;-19
2023/08/01 14:54:58;;;;;;;;;;;;;;;;;;2217605;59;1609;-19
2023/08/01 14:57:28;;;;;;;;;;;;;;;;;;2217163;66;2234;-18
2023/08/01 14:59:58;;;;;;;;;;;;;;;;;;2216532;58;2246;-19
2023/08/01 15:02:29;;;;;;;;;;;;;;;;;;2216834;66;1446;-18
2023/08/01 15:04:59;;;;;;;;;;;;;;;;;;2217034;59;2110;-19
2023/08/01 15:07:29;;;;;;;;;;;;;;;;;;2217837;66;1694;-19
2023/08/01 15:10:00;;;;;;;;;;;;;;;;;;2217474;66;1330;-19
2023/08/01 15:12:30;;;;;;;;;;;;;;;;;;2217947;66;1998;-19
2023/08/01 15:15:00;;;;;;;;;;;;;;;;;;2216739;58;1664;-19
2023/08/01 15:17:31;;;;;;;;;;;;;;;;;;2217186;66;1980;-19
2023/08/01 15:20:02;;;;;;;;;;;;;;;;;;2216562;66;1670;-19
2023/08/01 15:22:32;;;;;;;;;;;;;;;;;;2217798;58;1702;-18
2023/08/01 15:25:03;;;;;;;;;;;;;;;;;;2217321;66;1992;-18
2023/08/01 15:27:33;;;;;;;;;;;;;;;;;;2216502;58;1784;-18
2023/08/01 15:30:06;;;;;;;;;;;;;;;;;;2216972;66;2117;-19
2023/08/01 15:32:40;;;;;;;;;;;;;;;;;;2217459;58;2006;-18
2023/08/01 15:35:10;;;;;;;;;;;;;;;;;;2216740;66;1232;-19
2023/08/01 15:37:40;;;;;;;;;;;;;;;;;;2218644;53;2045;-24
2023/08/01 15:40:11;;;;;;;;;;;;;;;;;;2211885;58;2359;-24
2023/08/01 15:42:44;;;;;;;;;;;;;;;;;;2216582;66;2032;-24
2023/08/01 15:45:14;;;;;;;;;;;;;;;;;;2215834;58;1756;-24
2023/08/01 15:47:45;;;;;;;;;;;;;;;;;;2216820;58;1814;-24
2023/08/01 15:50:15;;;;;;;;;;;;;;;;;;2216569;58;2593;-24
2023/08/01 15:52:45;;;;;;;;;;;;;;;;;;2213951;58;1936;-24
2023/08/01 15:55:15;;;;;;;;;;;;;;;;;;2216172;58;1785;-24
2023/08/01 15:57:45;;;;;;;;;;;;;;;;;;2215771;59;1903;-24
2023/08/01 16:00:16;;;;;;;;;;;;;;;;;;2214935;58;2572;-24
2023/08/01 16:02:46;;;;;;;;;;;;;;;;;;2216815;66;2214;-24
2023/08/01 16:05:16;;;;;;;;;;;;;;;;;;2213046;59;2029;-24
2023/08/01 16:07:46;;;;;;;;;;;;;;;;;;2216677;59;2901;-24
2023/08/01 16:10:17;;;;;;;;;;;;;;;;;;2215896;59;2074;-24
2023/08/01 16:12:47;;;;;;;;;;;;;;;;;;2216717;58;1939;-24
2023/08/01 16:15:17;;;;;;;;;;;;;;;;;;2215637;58;2096;-24
2023/08/01 16:17:48;;;;;;;;;;;;;;;;;;2216925;66;1802;-24
2023/08/01 16:20:19;;;;;;;;;;;;;;;;;;2213423;66;1582;-24
2023/08/01 16:22:49;;;;;;;;;;;;;;;;;;2216311;59;1759;-24
2023/08/01 16:25:19;;;;;;;;;;;;;;;;;;2215908;66;2239;-24
2023/08/01 16:27:49;;;;;;;;;;;;;;;;;;2214021;59;1881;-24
2023/08/01 16:30:20;;;;;;;;;;;;;;;;;;2216479;58;1873;-24
2023/08/01 16:32:53;;;;;;;;;;;;;;;;;;2213076;66;2822;-24
2023/08/01 16:35:23;;;;;;;;;;;;;;;;;;2215661;66;1818;-24
2023/08/01 16:37:53;;;;;;;;;;;;;;;;;;2216258;58;1981;-24
2023/08/01 16:40:24;;;;;;;;;;;;;;;;;;2216244;59;1217;-24
2023/08/01 16:42:54;;;;;;;;;;;;;;;;;;2216434;66;1693;-24
2023/08/01 16:45:24;;;;;;;;;;;;;;;;;;2215854;58;1438;-24
2023/08/01 16:47:54;;;;;;;;;;;;;;;;;;2216175;66;1297;-24
2023/08/01 16:50:25;;;;;;;;;;;;;;;;;;2216087;58;1810;-24
2023/08/01 16:52:55;;;;;;;;;;;;;;;;;;2216223;58;1935;-24
2023/08/01 16:55:25;;;;;;;;;;;;;;;;;;2216406;66;2074;-24
2023/08/01 16:57:55;;;;;;;;;;;;;;;;;;2213892;66;1638;-24
2023/08/01 17:00:26;;;;;;;;;;;;;;;;;;2215632;58;2676;-24
2023/08/01 17:02:56;;;;;;;;;;;;;;;;;;2215760;59;2675;-24
2023/08/01 17:05:26;;;;;;;;;;;;;;;;;;2215645;58;1496;-24
2023/08/01 17:07:56;;;;;;;;;;;;;;;;;;2215990;66;1581;-24
2023/08/01 17:10:26;;;;;;;;;;;;;;;;;;2216003;66;1765;-24
2023/08/01 17:12:57;;;;;;;;;;;;;;;;;;2215264;58;1945;-24
2023/08/01 17:15:27;;;;;;;;;;;;;;;;;;2215807;66;1391;-24
2023/08/01 17:17:57;;;;;;;;;;;;;;;;;;2213799;66;1343;-24
2023/08/01 17:20:28;;;;;;;;;;;;;;;;;;2216352;59;1296;-24
2023/08/01 17:22:58;;;;;;;;;;;;;;;;;;2212501;66;1908;-24
2023/08/01 17:25:28;;;;;;;;;;;;;;;;;;2216086;58;1671;-24
2023/08/01 17:27:58;;;;;;;;;;;;;;;;;;2216384;58;1558;-24
2023/08/01 17:30:29;;;;;;;;;;;;;;;;;;2216266;58;1386;-24